sensor_id;sensor_type;location;lat;lon;timestamp;P1;durP1;ratioP1;P2;durP2;ratioP2
17449;SDS011;8842;51.244;7.102;2023-06-04T00:02:45;10.67;;;10.07;;
17449;SDS011;8842;51.244;7.102;2023-06-04T00:07:50;10.30;;;9.80;;
17449;SDS011;8842;51.244;7.102;2023-06-04T00:12:54;10.20;;;9.70;;
17449;SDS011;8842;51.244;7.102;2023-06-04T00:17:58;10.60;;;10.00;;
17449;SDS011;8842;51.244;7.102;2023-06-04T00:23:02;10.40;;;9.90;;
17449;SDS011;8842;51.244;7.102;2023-06-04T00:28:14;10.47;;;9.97;;
17449;SDS011;8842;51.244;7.102;2023-06-04T00:33:18;10.43;;;9.93;;
17449;SDS011;8842;51.244;7.102;2023-06-04T00:38:29;10.70;;;10.10;;
17449;SDS011;8842;51.244;7.102;2023-06-04T00:43:34;10.30;;;9.80;;
17449;SDS011;8842;51.244;7.102;2023-06-04T00:48:45;10.73;;;10.13;;
17449;SDS011;8842;51.244;7.102;2023-06-04T00:53:49;10.20;;;9.70;;
17449;SDS011;8842;51.244;7.102;2023-06-04T00:59:01;10.30;;;9.80;;
17449;SDS011;8842;51.244;7.102;2023-06-04T01:04:06;10.10;;;9.60;;
17449;SDS011;8842;51.244;7.102;2023-06-04T01:09:19;10.90;;;10.30;;
17449;SDS011;8842;51.244;7.102;2023-06-04T01:14:24;10.30;;;9.80;;
17449;SDS011;8842;51.244;7.102;2023-06-04T01:19:42;10.37;;;9.87;;
17449;SDS011;8842;51.244;7.102;2023-06-04T01:25:18;10.50;;;10.00;;
17449;SDS011;8842;51.244;7.102;2023-06-04T01:30:24;10.30;;;9.80;;
17449;SDS011;8842;51.244;7.102;2023-06-04T01:35:36;10.73;;;10.13;;
17449;SDS011;8842;51.244;7.102;2023-06-04T01:40:40;10.20;;;9.70;;
17449;SDS011;8842;51.244;7.102;2023-06-04T01:45:52;10.70;;;10.10;;
17449;SDS011;8842;51.244;7.102;2023-06-04T01:56:08;10.47;;;9.97;;
17449;SDS011;8842;51.244;7.102;2023-06-04T02:01:12;10.50;;;10.00;;
17449;SDS011;8842;51.244;7.102;2023-06-04T02:06:24;10.20;;;9.70;;
17449;SDS011;8842;51.244;7.102;2023-06-04T02:11:30;10.40;;;9.90;;
17449;SDS011;8842;51.244;7.102;2023-06-04T02:16:42;10.80;;;10.20;;
17449;SDS011;8842;51.244;7.102;2023-06-04T02:21:46;10.50;;;9.90;;
17449;SDS011;8842;51.244;7.102;2023-06-04T02:32:01;10.00;;;9.50;;
17449;SDS011;8842;51.244;7.102;2023-06-04T02:37:05;10.80;;;10.20;;
17449;SDS011;8842;51.244;7.102;2023-06-04T02:42:18;10.30;;;9.80;;
17449;SDS011;8842;51.244;7.102;2023-06-04T02:47:22;10.40;;;9.90;;
17449;SDS011;8842;51.244;7.102;2023-06-04T02:52:33;10.30;;;9.80;;
17449;SDS011;8842;51.244;7.102;2023-06-04T02:57:40;10.20;;;9.70;;
17449;SDS011;8842;51.244;7.102;2023-06-04T03:02:45;10.73;;;9.97;;
17449;SDS011;8842;51.244;7.102;2023-06-04T03:07:51;10.40;;;9.90;;
17449;SDS011;8842;51.244;7.102;2023-06-04T03:12:55;10.50;;;9.80;;
17449;SDS011;8842;51.244;7.102;2023-06-04T03:17:59;10.30;;;9.80;;
17449;SDS011;8842;51.244;7.102;2023-06-04T03:23:03;10.20;;;9.70;;
17449;SDS011;8842;51.244;7.102;2023-06-04T03:28:15;10.30;;;9.80;;
17449;SDS011;8842;51.244;7.102;2023-06-04T03:33:19;10.27;;;9.77;;
17449;SDS011;8842;51.244;7.102;2023-06-04T03:38:31;10.30;;;9.80;;
17449;SDS011;8842;51.244;7.102;2023-06-04T03:43:35;10.80;;;10.20;;
17449;SDS011;8842;51.244;7.102;2023-06-04T03:48:47;10.47;;;9.97;;
17449;SDS011;8842;51.244;7.102;2023-06-04T03:53:51;10.40;;;9.90;;
17449;SDS011;8842;51.244;7.102;2023-06-04T03:58:55;10.27;;;9.77;;
17449;SDS011;8842;51.244;7.102;2023-06-04T04:03:59;10.00;;;9.50;;
17449;SDS011;8842;51.244;7.102;2023-06-04T04:09:03;10.00;;;9.50;;
17449;SDS011;8842;51.244;7.102;2023-06-04T04:14:15;10.00;;;9.50;;
17449;SDS011;8842;51.244;7.102;2023-06-04T04:19:19;10.37;;;9.83;;
17449;SDS011;8842;51.244;7.102;2023-06-04T04:24:23;10.00;;;9.50;;
17449;SDS011;8842;51.244;7.102;2023-06-04T04:29:35;10.00;;;9.50;;
17449;SDS011;8842;51.244;7.102;2023-06-04T04:34:49;9.80;;;9.30;;
17449;SDS011;8842;51.244;7.102;2023-06-04T04:40:00;10.07;;;9.57;;
17449;SDS011;8842;51.244;7.102;2023-06-04T04:45:08;10.17;;;9.67;;
17449;SDS011;8842;51.244;7.102;2023-06-04T04:50:21;10.60;;;10.00;;
17449;SDS011;8842;51.244;7.102;2023-06-04T04:55:25;10.93;;;10.00;;
17449;SDS011;8842;51.244;7.102;2023-06-04T05:00:37;10.50;;;9.90;;
17449;SDS011;8842;51.244;7.102;2023-06-04T05:05:41;10.70;;;9.90;;
17449;SDS011;8842;51.244;7.102;2023-06-04T05:10:53;10.90;;;10.30;;
17449;SDS011;8842;51.244;7.102;2023-06-04T05:15:57;10.10;;;9.60;;
17449;SDS011;8842;51.244;7.102;2023-06-04T05:21:02;10.30;;;9.80;;
17449;SDS011;8842;51.244;7.102;2023-06-04T05:26:14;10.07;;;9.57;;
17449;SDS011;8842;51.244;7.102;2023-06-04T05:31:18;10.30;;;9.60;;
17449;SDS011;8842;51.244;7.102;2023-06-04T05:36:32;10.03;;;9.53;;
17449;SDS011;8842;51.244;7.102;2023-06-04T05:41:36;9.80;;;9.30;;
17449;SDS011;8842;51.244;7.102;2023-06-04T05:46:48;10.47;;;9.87;;
17449;SDS011;8842;51.244;7.102;2023-06-04T05:51:52;10.10;;;9.60;;
17449;SDS011;8842;51.244;7.102;2023-06-04T05:56:57;10.00;;;9.50;;
17449;SDS011;8842;51.244;7.102;2023-06-04T06:02:01;10.03;;;9.53;;
17449;SDS011;8842;51.244;7.102;2023-06-04T06:07:05;10.17;;;9.57;;
17449;SDS011;8842;51.244;7.102;2023-06-04T06:12:17;9.70;;;9.20;;
17449;SDS011;8842;51.244;7.102;2023-06-04T06:17:21;9.80;;;9.30;;
17449;SDS011;8842;51.244;7.102;2023-06-04T06:22:32;10.23;;;9.63;;
17449;SDS011;8842;51.244;7.102;2023-06-04T06:27:37;9.60;;;9.10;;
17449;SDS011;8842;51.244;7.102;2023-06-04T06:32:49;9.70;;;9.20;;
17449;SDS011;8842;51.244;7.102;2023-06-04T06:37:53;10.57;;;9.70;;
17449;SDS011;8842;51.244;7.102;2023-06-04T06:42:57;9.80;;;9.30;;
17449;SDS011;8842;51.244;7.102;2023-06-04T06:48:01;10.00;;;9.50;;
17449;SDS011;8842;51.244;7.102;2023-06-04T06:53:16;10.27;;;9.77;;
17449;SDS011;8842;51.244;7.102;2023-06-04T06:58:21;10.10;;;9.60;;
17449;SDS011;8842;51.244;7.102;2023-06-04T07:03:32;9.60;;;9.10;;
17449;SDS011;8842;51.244;7.102;2023-06-04T07:08:36;9.50;;;9.00;;
17449;SDS011;8842;51.244;7.102;2023-06-04T07:13:48;9.20;;;8.70;;
17449;SDS011;8842;51.244;7.102;2023-06-04T07:18:52;9.50;;;9.00;;
17449;SDS011;8842;51.244;7.102;2023-06-04T07:23:56;9.57;;;9.07;;
17449;SDS011;8842;51.244;7.102;2023-06-04T07:29:08;9.57;;;9.07;;
17449;SDS011;8842;51.244;7.102;2023-06-04T07:34:12;9.70;;;9.10;;
17449;SDS011;8842;51.244;7.102;2023-06-04T07:39:17;9.27;;;8.77;;
17449;SDS011;8842;51.244;7.102;2023-06-04T07:44:21;9.87;;;9.37;;
17449;SDS011;8842;51.244;7.102;2023-06-04T07:49:33;10.10;;;9.60;;
17449;SDS011;8842;51.244;7.102;2023-06-04T07:54:37;9.90;;;9.40;;
17449;SDS011;8842;51.244;7.102;2023-06-04T07:59:49;10.57;;;9.43;;
17449;SDS011;8842;51.244;7.102;2023-06-04T08:04:54;10.00;;;9.40;;
17449;SDS011;8842;51.244;7.102;2023-06-04T08:09:59;10.20;;;9.70;;
17449;SDS011;8842;51.244;7.102;2023-06-04T08:15:03;10.57;;;9.97;;
17449;SDS011;8842;51.244;7.102;2023-06-04T08:20:16;10.20;;;9.70;;
17449;SDS011;8842;51.244;7.102;2023-06-04T08:25:20;10.48;;;9.88;;
17449;SDS011;8842;51.244;7.102;2023-06-04T08:30:32;11.05;;;10.40;;
17449;SDS011;8842;51.244;7.102;2023-06-04T08:35:38;10.43;;;9.88;;
17449;SDS011;8842;51.244;7.102;2023-06-04T08:40:42;10.35;;;9.83;;
17449;SDS011;8842;51.244;7.102;2023-06-04T08:45:48;11.43;;;10.72;;
17449;SDS011;8842;51.244;7.102;2023-06-04T08:51:00;11.20;;;10.50;;
17449;SDS011;8842;51.244;7.102;2023-06-04T08:56:06;11.15;;;10.55;;
17449;SDS011;8842;51.244;7.102;2023-06-04T09:01:18;12.03;;;10.80;;
17449;SDS011;8842;51.244;7.102;2023-06-04T09:06:23;11.05;;;10.40;;
17449;SDS011;8842;51.244;7.102;2023-06-04T09:11:36;10.70;;;10.05;;
17449;SDS011;8842;51.244;7.102;2023-06-04T09:16:44;10.78;;;10.18;;
17449;SDS011;8842;51.244;7.102;2023-06-04T09:21:57;10.32;;;9.75;;
17449;SDS011;8842;51.244;7.102;2023-06-04T09:27:08;9.65;;;9.13;;
17449;SDS011;8842;51.244;7.102;2023-06-04T09:32:23;10.38;;;9.78;;
17449;SDS011;8842;51.244;7.102;2023-06-04T09:37:28;10.00;;;9.50;;
17449;SDS011;8842;51.244;7.102;2023-06-04T09:42:43;10.30;;;9.80;;
17449;SDS011;8842;51.244;7.102;2023-06-04T09:47:48;10.75;;;10.15;;
17449;SDS011;8842;51.244;7.102;2023-06-04T09:52:52;10.28;;;9.78;;
17449;SDS011;8842;51.244;7.102;2023-06-04T09:57:56;10.35;;;9.85;;
17449;SDS011;8842;51.244;7.102;2023-06-04T10:03:02;10.70;;;10.10;;
17449;SDS011;8842;51.244;7.102;2023-06-04T10:08:06;10.25;;;9.73;;
17449;SDS011;8842;51.244;7.102;2023-06-04T10:13:20;10.38;;;9.88;;
17449;SDS011;8842;51.244;7.102;2023-06-04T10:18:27;9.98;;;9.48;;
17449;SDS011;8842;51.244;7.102;2023-06-04T10:23:43;10.32;;;9.73;;
17449;SDS011;8842;51.244;7.102;2023-06-04T10:28:49;9.83;;;9.33;;
17449;SDS011;8842;51.244;7.102;2023-06-04T10:33:54;9.58;;;9.08;;
17449;SDS011;8842;51.244;7.102;2023-06-04T10:38:58;10.03;;;9.53;;
17449;SDS011;8842;51.244;7.102;2023-06-04T10:44:03;10.20;;;9.60;;
17449;SDS011;8842;51.244;7.102;2023-06-04T10:49:25;9.70;;;9.20;;
17449;SDS011;8842;51.244;7.102;2023-06-04T10:54:29;10.35;;;9.85;;
17449;SDS011;8842;51.244;7.102;2023-06-04T10:59:41;10.05;;;9.55;;
17449;SDS011;8842;51.244;7.102;2023-06-04T11:04:57;10.40;;;9.88;;
17449;SDS011;8842;51.244;7.102;2023-06-04T11:10:04;9.70;;;9.20;;
17449;SDS011;8842;51.244;7.102;2023-06-04T11:15:17;10.45;;;9.85;;
17449;SDS011;8842;51.244;7.102;2023-06-04T11:20:22;10.58;;;9.98;;
17449;SDS011;8842;51.244;7.102;2023-06-04T11:25:33;8.70;;;8.20;;
17449;SDS011;8842;51.244;7.102;2023-06-04T11:35:48;10.00;;;9.40;;
17449;SDS011;8842;51.244;7.102;2023-06-04T11:40:57;10.30;;;9.80;;
17449;SDS011;8842;51.244;7.102;2023-06-04T11:46:05;10.20;;;9.70;;
17449;SDS011;8842;51.244;7.102;2023-06-04T11:51:17;9.70;;;9.20;;
17449;SDS011;8842;51.244;7.102;2023-06-04T11:56:22;9.75;;;9.25;;
17449;SDS011;8842;51.244;7.102;2023-06-04T12:01:28;9.70;;;9.20;;
17449;SDS011;8842;51.244;7.102;2023-06-04T12:06:50;9.30;;;8.80;;
17449;SDS011;8842;51.244;7.102;2023-06-04T12:11:58;9.13;;;8.65;;
17449;SDS011;8842;51.244;7.102;2023-06-04T12:17:05;9.08;;;8.58;;
17449;SDS011;8842;51.244;7.102;2023-06-04T12:22:09;9.05;;;8.60;;
17449;SDS011;8842;51.244;7.102;2023-06-04T12:27:21;9.30;;;8.80;;
17449;SDS011;8842;51.244;7.102;2023-06-04T12:32:26;9.20;;;8.70;;
17449;SDS011;8842;51.244;7.102;2023-06-04T12:37:38;8.40;;;7.95;;
17449;SDS011;8842;51.244;7.102;2023-06-04T12:42:43;9.40;;;8.90;;
17449;SDS011;8842;51.244;7.102;2023-06-04T12:47:54;9.65;;;9.05;;
17449;SDS011;8842;51.244;7.102;2023-06-04T12:52:58;9.40;;;8.90;;
17449;SDS011;8842;51.244;7.102;2023-06-04T12:58:02;12.18;;;10.32;;
17449;SDS011;8842;51.244;7.102;2023-06-04T13:03:14;9.75;;;9.25;;
17449;SDS011;8842;51.244;7.102;2023-06-04T13:08:18;9.45;;;8.95;;
17449;SDS011;8842;51.244;7.102;2023-06-04T13:13:30;9.78;;;9.20;;
17449;SDS011;8842;51.244;7.102;2023-06-04T13:18:34;9.20;;;8.70;;
17449;SDS011;8842;51.244;7.102;2023-06-04T13:23:46;9.65;;;9.15;;
17449;SDS011;8842;51.244;7.102;2023-06-04T13:28:57;9.75;;;9.25;;
17449;SDS011;8842;51.244;7.102;2023-06-04T13:34:02;10.00;;;9.40;;
17449;SDS011;8842;51.244;7.102;2023-06-04T13:39:06;9.63;;;9.13;;
17449;SDS011;8842;51.244;7.102;2023-06-04T13:44:17;9.68;;;9.18;;
17449;SDS011;8842;51.244;7.102;2023-06-04T13:49:23;9.40;;;8.90;;
17449;SDS011;8842;51.244;7.102;2023-06-04T13:54:34;9.10;;;8.60;;
17449;SDS011;8842;51.244;7.102;2023-06-04T13:59:38;9.40;;;8.90;;
17449;SDS011;8842;51.244;7.102;2023-06-04T14:04:52;9.33;;;8.83;;
17449;SDS011;8842;51.244;7.102;2023-06-04T14:09:56;9.35;;;8.85;;
17449;SDS011;8842;51.244;7.102;2023-06-04T14:15:01;9.50;;;9.00;;
17449;SDS011;8842;51.244;7.102;2023-06-04T14:20:06;9.50;;;9.00;;
17449;SDS011;8842;51.244;7.102;2023-06-04T14:25:18;9.58;;;9.08;;
17449;SDS011;8842;51.244;7.102;2023-06-04T14:30:22;10.00;;;9.28;;
17449;SDS011;8842;51.244;7.102;2023-06-04T14:35:34;9.28;;;8.78;;
17449;SDS011;8842;51.244;7.102;2023-06-04T14:40:38;9.30;;;8.80;;
17449;SDS011;8842;51.244;7.102;2023-06-04T14:45:49;9.00;;;8.60;;
17449;SDS011;8842;51.244;7.102;2023-06-04T14:50:54;9.55;;;9.00;;
17449;SDS011;8842;51.244;7.102;2023-06-04T14:56:05;9.00;;;8.60;;
17449;SDS011;8842;51.244;7.102;2023-06-04T15:01:09;9.00;;;8.60;;
17449;SDS011;8842;51.244;7.102;2023-06-04T15:06:14;9.43;;;8.93;;
17449;SDS011;8842;51.244;7.102;2023-06-04T15:11:28;9.23;;;8.73;;
17449;SDS011;8842;51.244;7.102;2023-06-04T15:16:32;9.00;;;8.60;;
17449;SDS011;8842;51.244;7.102;2023-06-04T15:21:44;9.00;;;8.60;;
17449;SDS011;8842;51.244;7.102;2023-06-04T15:26:49;9.00;;;8.55;;
17449;SDS011;8842;51.244;7.102;2023-06-04T15:31:53;9.73;;;9.10;;
17449;SDS011;8842;51.244;7.102;2023-06-04T15:36:57;9.58;;;8.98;;
17449;SDS011;8842;51.244;7.102;2023-06-04T15:42:01;9.00;;;8.55;;
17449;SDS011;8842;51.244;7.102;2023-06-04T15:47:06;9.30;;;8.80;;
17449;SDS011;8842;51.244;7.102;2023-06-04T15:52:17;9.05;;;8.55;;
17449;SDS011;8842;51.244;7.102;2023-06-04T15:57:22;9.35;;;8.85;;
17449;SDS011;8842;51.244;7.102;2023-06-04T16:02:34;9.03;;;8.63;;
17449;SDS011;8842;51.244;7.102;2023-06-04T16:07:37;9.18;;;8.68;;
17449;SDS011;8842;51.244;7.102;2023-06-04T16:12:49;8.93;;;8.53;;
17449;SDS011;8842;51.244;7.102;2023-06-04T16:17:54;9.70;;;9.10;;
17449;SDS011;8842;51.244;7.102;2023-06-04T16:22:58;9.28;;;8.73;;
17449;SDS011;8842;51.244;7.102;2023-06-04T16:28:02;9.05;;;8.63;;
17449;SDS011;8842;51.244;7.102;2023-06-04T16:33:06;9.55;;;9.05;;
17449;SDS011;8842;51.244;7.102;2023-06-04T16:38:18;9.28;;;8.78;;
17449;SDS011;8842;51.244;7.102;2023-06-04T16:43:23;9.23;;;8.73;;
17449;SDS011;8842;51.244;7.102;2023-06-04T16:48:50;9.53;;;9.03;;
17449;SDS011;8842;51.244;7.102;2023-06-04T16:59:05;10.03;;;9.40;;
17449;SDS011;8842;51.244;7.102;2023-06-04T17:04:09;10.25;;;9.53;;
17449;SDS011;8842;51.244;7.102;2023-06-04T17:09:20;10.15;;;9.38;;
17449;SDS011;8842;51.244;7.102;2023-06-04T17:14:24;9.75;;;9.25;;
17449;SDS011;8842;51.244;7.102;2023-06-04T17:19:36;9.10;;;8.60;;
17449;SDS011;8842;51.244;7.102;2023-06-04T17:29:53;9.18;;;8.75;;
17449;SDS011;8842;51.244;7.102;2023-06-04T17:34:57;9.70;;;9.20;;
17449;SDS011;8842;51.244;7.102;2023-06-04T17:40:02;9.80;;;9.30;;
17449;SDS011;8842;51.244;7.102;2023-06-04T17:45:09;9.45;;;8.95;;
17449;SDS011;8842;51.244;7.102;2023-06-04T17:50:21;9.95;;;9.35;;
17449;SDS011;8842;51.244;7.102;2023-06-04T17:55:25;9.10;;;8.70;;
17449;SDS011;8842;51.244;7.102;2023-06-04T18:00:37;9.30;;;8.80;;
17449;SDS011;8842;51.244;7.102;2023-06-04T18:05:41;17.23;;;9.40;;
17449;SDS011;8842;51.244;7.102;2023-06-04T18:10:53;9.80;;;9.30;;
17449;SDS011;8842;51.244;7.102;2023-06-04T18:15:58;10.25;;;9.68;;
17449;SDS011;8842;51.244;7.102;2023-06-04T18:21:02;10.20;;;9.70;;
17449;SDS011;8842;51.244;7.102;2023-06-04T18:26:06;10.37;;;9.87;;
17449;SDS011;8842;51.244;7.102;2023-06-04T18:31:18;10.23;;;9.63;;
17449;SDS011;8842;51.244;7.102;2023-06-04T18:36:22;10.20;;;9.60;;
17449;SDS011;8842;51.244;7.102;2023-06-04T18:41:34;10.03;;;9.50;;
17449;SDS011;8842;51.244;7.102;2023-06-04T18:46:38;9.80;;;9.30;;
17449;SDS011;8842;51.244;7.102;2023-06-04T18:51:52;9.80;;;9.30;;
17449;SDS011;8842;51.244;7.102;2023-06-04T18:56:56;9.83;;;9.33;;
17449;SDS011;8842;51.244;7.102;2023-06-04T19:02:00;9.60;;;9.10;;
17449;SDS011;8842;51.244;7.102;2023-06-04T19:07:04;9.70;;;9.20;;
17449;SDS011;8842;51.244;7.102;2023-06-04T19:12:16;9.63;;;9.13;;
17449;SDS011;8842;51.244;7.102;2023-06-04T19:17:20;9.90;;;9.40;;
17449;SDS011;8842;51.244;7.102;2023-06-04T19:22:32;9.97;;;9.40;;
17449;SDS011;8842;51.244;7.102;2023-06-04T19:27:36;9.80;;;9.20;;
17449;SDS011;8842;51.244;7.102;2023-06-04T19:32:48;9.47;;;8.97;;
17449;SDS011;8842;51.244;7.102;2023-06-04T19:37:52;9.60;;;9.10;;
17449;SDS011;8842;51.244;7.102;2023-06-04T19:42:56;9.60;;;9.10;;
17449;SDS011;8842;51.244;7.102;2023-06-04T19:48:00;9.90;;;9.40;;
17449;SDS011;8842;51.244;7.102;2023-06-04T19:53:04;9.70;;;9.20;;
17449;SDS011;8842;51.244;7.102;2023-06-04T19:58:15;9.87;;;9.37;;
17449;SDS011;8842;51.244;7.102;2023-06-04T20:03:20;9.70;;;9.20;;
17449;SDS011;8842;51.244;7.102;2023-06-04T20:08:31;9.50;;;9.00;;
17449;SDS011;8842;51.244;7.102;2023-06-04T20:13:37;9.77;;;9.27;;
17449;SDS011;8842;51.244;7.102;2023-06-04T20:18:52;10.00;;;9.50;;
17449;SDS011;8842;51.244;7.102;2023-06-04T20:23:56;9.93;;;9.43;;
17449;SDS011;8842;51.244;7.102;2023-06-04T20:29:00;10.10;;;9.60;;
17449;SDS011;8842;51.244;7.102;2023-06-04T20:34:04;10.10;;;9.60;;
17449;SDS011;8842;51.244;7.102;2023-06-04T20:39:15;10.43;;;9.93;;
17449;SDS011;8842;51.244;7.102;2023-06-04T20:44:19;9.90;;;9.40;;
17449;SDS011;8842;51.244;7.102;2023-06-04T20:49:24;9.93;;;9.43;;
17449;SDS011;8842;51.244;7.102;2023-06-04T20:54:35;9.80;;;9.30;;
17449;SDS011;8842;51.244;7.102;2023-06-04T20:59:39;9.83;;;9.33;;
17449;SDS011;8842;51.244;7.102;2023-06-04T21:04:51;9.70;;;9.20;;
17449;SDS011;8842;51.244;7.102;2023-06-04T21:09:55;10.00;;;9.50;;
17449;SDS011;8842;51.244;7.102;2023-06-04T21:14:59;10.10;;;9.60;;
17449;SDS011;8842;51.244;7.102;2023-06-04T21:20:04;10.00;;;9.50;;
17449;SDS011;8842;51.244;7.102;2023-06-04T21:25:16;10.20;;;9.70;;
17449;SDS011;8842;51.244;7.102;2023-06-04T21:30:20;10.73;;;10.13;;
17449;SDS011;8842;51.244;7.102;2023-06-04T21:35:32;10.90;;;10.30;;
17449;SDS011;8842;51.244;7.102;2023-06-04T21:45:47;10.43;;;9.93;;
17449;SDS011;8842;51.244;7.102;2023-06-04T21:50:51;11.30;;;10.70;;
17449;SDS011;8842;51.244;7.102;2023-06-04T21:56:03;10.90;;;10.30;;
17449;SDS011;8842;51.244;7.102;2023-06-04T22:01:07;10.40;;;9.90;;
17449;SDS011;8842;51.244;7.102;2023-06-04T22:06:19;10.40;;;9.90;;
17449;SDS011;8842;51.244;7.102;2023-06-04T22:11:23;10.20;;;9.67;;
17449;SDS011;8842;51.244;7.102;2023-06-04T22:16:35;10.60;;;10.00;;
17449;SDS011;8842;51.244;7.102;2023-06-04T22:21:39;10.60;;;10.10;;
17449;SDS011;8842;51.244;7.102;2023-06-04T22:26:50;10.40;;;9.90;;
17449;SDS011;8842;51.244;7.102;2023-06-04T22:31:54;10.20;;;9.70;;
17449;SDS011;8842;51.244;7.102;2023-06-04T22:36:58;10.03;;;9.53;;
17449;SDS011;8842;51.244;7.102;2023-06-04T22:47:14;10.27;;;9.77;;
17449;SDS011;8842;51.244;7.102;2023-06-04T22:52:17;10.20;;;9.70;;
17449;SDS011;8842;51.244;7.102;2023-06-04T22:57:29;10.50;;;10.00;;
17449;SDS011;8842;51.244;7.102;2023-06-04T23:02:33;10.60;;;10.00;;
17449;SDS011;8842;51.244;7.102;2023-06-04T23:07:45;10.53;;;10.03;;
17449;SDS011;8842;51.244;7.102;2023-06-04T23:12:49;10.50;;;10.00;;
17449;SDS011;8842;51.244;7.102;2023-06-04T23:18:04;10.93;;;10.20;;
17449;SDS011;8842;51.244;7.102;2023-06-04T23:23:08;10.50;;;10.00;;
17449;SDS011;8842;51.244;7.102;2023-06-04T23:28:20;10.60;;;10.10;;
17449;SDS011;8842;51.244;7.102;2023-06-04T23:33:24;10.50;;;10.00;;
17449;SDS011;8842;51.244;7.102;2023-06-04T23:38:36;10.23;;;9.73;;
17449;SDS011;8842;51.244;7.102;2023-06-04T23:43:40;10.70;;;10.10;;
17449;SDS011;8842;51.244;7.102;2023-06-04T23:48:52;10.40;;;9.90;;
17449;SDS011;8842;51.244;7.102;2023-06-04T23:53:56;10.43;;;9.87;;
17449;SDS011;8842;51.244;7.102;2023-06-04T23:59:07;10.30;;;9.80;;
